Altair — 9LC2000 — position and weather

sailwx.info

Track history (hours):
 
Tides and Currents Weather Stations Pressure Air Temp Water Temp Dewpoint Dewpoint Depression Visibility Wind Speed Wind Dir Waves Ship Positions

Altair

Last reported at 2017-Feb-18 19:14 UTC. Time now 2017-Feb-21 14:50 UTC.
Position N 44°17' E 013°02'.

Length 108 m; draft 3 m.

Type: Cargo ship. MMSI: 667021000.

Date/timePositionNaut miles runAvg speedWind from/ knotsBaromVisibWave heightAir tempDewpointWater temp
2017-Feb-18 19:14N 44°17' E 013°02'25 6.0
2017-Feb-18 15:07N 44°30' E 012°31'1 0.8
2017-Feb-18 14:04N 44°30' E 012°30'0 0.0
2017-Feb-18 13:28N 44°30' E 012°30'0 0.0
2017-Feb-18 09:04N 44°30' E 012°30'0 0.0
2017-Feb-17 23:28N 44°30' E 012°30'0 0.0
2017-Feb-17 06:28N 44°30' E 012°30'0 0.0
2017-Feb-17 05:25N 44°30' E 012°30'0 0.0
2017-Feb-17 03:31N 44°30' E 012°30'0 0.0
2017-Feb-17 02:28N 44°30' E 012°30'0 0.0
2017-Feb-17 00:31N 44°30' E 012°30'11 5.1
2017-Feb-16 22:21N 44°38' E 012°40'7 8.8
2017-Feb-16 21:32N 44°45' E 012°43'8 8.6
2017-Feb-16 20:33N 44°53' E 012°47'8 7.8
2017-Feb-16 19:33N 45°01' E 012°45'8 8.2
2017-Feb-16 18:33N 45°08' E 012°38'8 8.4
2017-Feb-16 17:33N 45°12' E 012°28'8 7.7
2017-Feb-16 16:33N 45°14' E 012°17'2 1.5
2017-Feb-16 15:32N 45°12' E 012°16'0 0.0
2017-Feb-16 14:32N 45°12' E 012°16'0 0.0
2017-Feb-16 13:32N 45°12' E 012°16'0 0.0
2017-Feb-16 12:32N 45°12' E 012°16'0 0.0
2017-Feb-16 11:32N 45°12' E 012°16'0 0.0
2017-Feb-16 10:29N 45°12' E 012°16'0 0.0
2017-Feb-16 09:32N 45°12' E 012°16'0 0.0
2017-Feb-16 08:29N 45°12' E 012°16'0 0.0
2017-Feb-16 07:32N 45°12' E 012°16'0 0.0
2017-Feb-16 06:32N 45°12' E 012°16'0 0.0
2017-Feb-16 05:32N 45°12' E 012°16'0 0.0
2017-Feb-16 04:32N 45°12' E 012°16'0 0.0
2017-Feb-16 03:32N 45°12' E 012°16'0 0.0
2017-Feb-16 02:32N 45°12' E 012°16'0 0.0
2017-Feb-16 01:32N 45°12' E 012°16'0 0.0
2017-Feb-16 00:32N 45°12' E 012°16'0 0.0
2017-Feb-15 23:32N 45°12' E 012°16'0 0.0
2017-Feb-15 22:32N 45°12' E 012°16'0 0.0
2017-Feb-15 21:32N 45°12' E 012°16'0 0.0
2017-Feb-15 20:32N 45°12' E 012°16'0 0.0
2017-Feb-15 19:32N 45°12' E 012°16'0 0.0
2017-Feb-15 18:29N 45°12' E 012°16'0 0.0
2017-Feb-15 17:29N 45°12' E 012°16'0 0.0
2017-Feb-15 16:29N 45°12' E 012°16'0 0.0
2017-Feb-15 15:32N 45°12' E 012°16'0 0.0
2017-Feb-15 14:32N 45°12' E 012°16'0 0.0
2017-Feb-15 13:32N 45°12' E 012°16'0 0.0
2017-Feb-15 12:32N 45°12' E 012°16'0 0.0
2017-Feb-15 11:32N 45°12' E 012°16'0 0.0
2017-Feb-15 10:32N 45°12' E 012°16'0 0.0
2017-Feb-15 09:32N 45°12' E 012°16'0 0.0
2017-Feb-15 08:32N 45°12' E 012°16'0 0.0
2017-Feb-15 07:32N 45°12' E 012°16'0 0.0
2017-Feb-15 06:32N 45°12' E 012°16'0 0.0
2017-Feb-15 05:32N 45°12' E 012°16'0 0.0
2017-Feb-15 04:32N 45°12' E 012°16'0 0.0
2017-Feb-15 03:32N 45°12' E 012°16'0 0.0
2017-Feb-15 02:32N 45°12' E 012°16'0 0.0
2017-Feb-15 01:33N 45°12' E 012°16'0 0.0
2017-Feb-15 00:33N 45°12' E 012°16'0 0.0
2017-Feb-14 23:33N 45°12' E 012°16'0 0.0
2017-Feb-14 22:33N 45°12' E 012°16'0 0.0
2017-Feb-14 21:33N 45°12' E 012°16'0 0.0
2017-Feb-14 20:30N 45°12' E 012°16'0 0.0
2017-Feb-14 19:33N 45°12' E 012°16'0 0.0
2017-Feb-14 18:33N 45°12' E 012°16'0 0.0
2017-Feb-14 17:33N 45°12' E 012°16'0 0.0
2017-Feb-14 16:33N 45°12' E 012°16'0 0.0
2017-Feb-14 15:33N 45°12' E 012°16'0 0.0
2017-Feb-14 14:33N 45°12' E 012°16'0 0.0
2017-Feb-14 13:33N 45°12' E 012°16'0 0.0
2017-Feb-14 12:33N 45°12' E 012°16'0 0.0
2017-Feb-14 11:27N 45°12' E 012°16'0 0.0
2017-Feb-14 10:33N 45°12' E 012°16'0 0.0
2017-Feb-14 09:33N 45°12' E 012°16'0 0.0
2017-Feb-14 08:33N 45°12' E 012°16'0 0.0
2017-Feb-14 07:33N 45°12' E 012°16'0 0.0
2017-Feb-14 06:33N 45°12' E 012°16'0 0.0
2017-Feb-14 05:21N 45°12' E 012°16'0 0.0
2017-Feb-14 04:33N 45°12' E 012°16'0 0.0
2017-Feb-14 03:33N 45°12' E 012°16'0 0.0
2017-Feb-14 02:33N 45°12' E 012°16'0 0.0
2017-Feb-14 01:33N 45°12' E 012°16'0 0.0
2017-Feb-14 00:33N 45°12' E 012°16'0 0.0
2017-Feb-13 23:33N 45°12' E 012°16'0 0.0
2017-Feb-13 22:33N 45°12' E 012°16'0 0.0
2017-Feb-13 21:33N 45°12' E 012°16'0 0.0
2017-Feb-13 20:33N 45°12' E 012°16'0 0.0
2017-Feb-13 19:33N 45°12' E 012°16'0 0.0
2017-Feb-13 18:33N 45°12' E 012°16'0 0.0
2017-Feb-13 17:33N 45°12' E 012°16'0 0.0
2017-Feb-13 16:33N 45°12' E 012°16'0 0.0
2017-Feb-13 15:30N 45°12' E 012°16'0 0.0
2017-Feb-13 14:33N 45°12' E 012°16'0 0.0
2017-Feb-13 13:33N 45°12' E 012°16'0 0.0
2017-Feb-13 12:33N 45°12' E 012°16'0 0.0
2017-Feb-13 11:33N 45°12' E 012°16'0 0.0
2017-Feb-13 10:33N 45°12' E 012°16'0 0.0
2017-Feb-13 09:33N 45°12' E 012°16'0 0.0
2017-Feb-13 08:33N 45°12' E 012°16'0 0.0
2017-Feb-13 07:30N 45°12' E 012°16'0 0.0
2017-Feb-13 06:30N 45°12' E 012°16'0 0.0
2017-Feb-13 05:30N 45°12' E 012°16'0 0.0
2017-Feb-13 04:33N 45°12' E 012°16'0 0.0
2017-Feb-13 03:33N 45°12' E 012°16'0 0.0
2017-Feb-13 02:33N 45°12' E 012°16'0 0.0
2017-Feb-13 01:33N 45°12' E 012°16'0 0.0
2017-Feb-13 00:33N 45°12' E 012°16'0 0.0
2017-Feb-12 23:30N 45°12' E 012°16'0 0.0
2017-Feb-12 22:33N 45°12' E 012°16'0 0.0
2017-Feb-12 21:33N 45°12' E 012°16'0 0.0
2017-Feb-12 20:33N 45°12' E 012°16'0 0.0
2017-Feb-12 19:33N 45°12' E 012°16'0 0.0
2017-Feb-12 18:33N 45°12' E 012°16'0 0.0
2017-Feb-12 17:33N 45°12' E 012°16'0 0.0
2017-Feb-12 16:33N 45°12' E 012°16'0 0.0
2017-Feb-12 15:33N 45°12' E 012°16'0 0.0
2017-Feb-12 14:33N 45°12' E 012°16'0 0.0
2017-Feb-12 13:33N 45°12' E 012°16'0 0.0
2017-Feb-12 12:33N 45°12' E 012°16'0 0.0
2017-Feb-12 11:33N 45°12' E 012°16'0 0.0
2017-Feb-12 10:30N 45°12' E 012°16'0 0.0
2017-Feb-12 09:33N 45°12' E 012°16'0 0.0
2017-Feb-12 08:33N 45°12' E 012°16'0 0.0
2017-Feb-12 07:33N 45°12' E 012°16'0 0.0
2017-Feb-12 06:33N 45°12' E 012°16'0 0.0
2017-Feb-12 05:33N 45°12' E 012°16'0 0.0
2017-Feb-12 04:33N 45°12' E 012°16'0 0.0
2017-Feb-12 03:33N 45°12' E 012°16'0 0.0
2017-Feb-12 02:33N 45°12' E 012°16'0 0.0
2017-Feb-12 01:33N 45°12' E 012°16'0 0.0
2017-Feb-12 00:33N 45°12' E 012°16'0 0.0
2017-Feb-11 23:33N 45°12' E 012°16'0 0.0
2017-Feb-11 22:33N 45°12' E 012°16'0 0.0
2017-Feb-11 21:33N 45°12' E 012°16'0 0.0
2017-Feb-11 20:33N 45°12' E 012°16'0 0.0
2017-Feb-11 19:33N 45°12' E 012°16'0 0.0
2017-Feb-11 18:33N 45°12' E 012°16'0 0.0
2017-Feb-11 17:33N 45°12' E 012°16'0 0.0
2017-Feb-11 16:33N 45°12' E 012°16'0 0.0
2017-Feb-11 15:33N 45°12' E 012°16'0 0.0
2017-Feb-11 14:33N 45°12' E 012°16'0 0.0
2017-Feb-11 13:33N 45°12' E 012°16'0 0.0
2017-Feb-11 12:33N 45°12' E 012°16'0 0.0
2017-Feb-11 11:33N 45°12' E 012°16'0 0.0
2017-Feb-11 10:30N 45°12' E 012°16'0 0.0
2017-Feb-11 09:33N 45°12' E 012°16'0 0.0
2017-Feb-11 08:33N 45°12' E 012°16'0 0.0
2017-Feb-11 07:33N 45°12' E 012°16'0 0.0
2017-Feb-11 06:33N 45°12' E 012°16'0 0.0
2017-Feb-11 05:33N 45°12' E 012°16'0 0.0
2017-Feb-11 04:33N 45°12' E 012°16'0 0.0
2017-Feb-11 03:33N 45°12' E 012°16'0 0.0
2017-Feb-11 02:33N 45°12' E 012°16'0 0.0
2017-Feb-11 01:33N 45°12' E 012°16'0 0.0
2017-Feb-11 00:33N 45°12' E 012°16'0 0.0
2017-Feb-10 23:30N 45°12' E 012°16'0 0.0
2017-Feb-10 22:33N 45°12' E 012°16'0 0.0
2017-Feb-10 21:33N 45°12' E 012°16'0 0.0
2017-Feb-10 20:33N 45°12' E 012°16'0 0.0
2017-Feb-10 19:33N 45°12' E 012°16'0 0.0
2017-Feb-10 18:33N 45°12' E 012°16'0 0.0
2017-Feb-10 17:33N 45°12' E 012°16'0 0.0
2017-Feb-10 16:33N 45°12' E 012°16'0 0.0
2017-Feb-10 15:30N 45°12' E 012°16'0 0.0
2017-Feb-10 14:33N 45°12' E 012°16'0 0.0
2017-Feb-10 13:33N 45°12' E 012°16'0 0.0
2017-Feb-10 12:30N 45°12' E 012°16'0 0.0
2017-Feb-10 11:33N 45°12' E 012°16'0 0.0
2017-Feb-10 10:33N 45°12' E 012°16'0 0.0
2017-Feb-10 09:33N 45°12' E 012°16'0 0.0
2017-Feb-10 07:30N 45°12' E 012°16'0 0.0
2017-Feb-10 06:30N 45°12' E 012°16'0 0.0
2017-Feb-10 05:30N 45°12' E 012°16'0 0.0
2017-Feb-10 04:30N 45°12' E 012°16'0 0.0
2017-Feb-10 03:30N 45°12' E 012°16'0 0.0
2017-Feb-10 02:30N 45°12' E 012°16'0 0.0
2017-Feb-10 01:30N 45°12' E 012°16'0 0.0
2017-Feb-10 00:24N 45°12' E 012°16'0 0.0
2017-Feb-09 23:33N 45°12' E 012°16'0 0.0
2017-Feb-09 22:30N 45°12' E 012°16'0 0.0
2017-Feb-09 21:33N 45°12' E 012°16'0 0.0
2017-Feb-09 20:33N 45°12' E 012°16'0 0.0
2017-Feb-09 19:30N 45°12' E 012°16'0 0.0
2017-Feb-09 18:33N 45°12' E 012°16'0 0.0
2017-Feb-09 17:30N 45°12' E 012°16'0 0.0
2017-Feb-09 16:12N 45°12' E 012°16'0 0.0
2017-Feb-09 14:24N 45°12' E 012°16'0 0.0
2017-Feb-09 13:30N 45°12' E 012°16'0 0.0
2017-Feb-09 09:33N 45°12' E 012°16'0 0.0
2017-Feb-09 08:21N 45°12' E 012°16'0 0.0
2017-Feb-09 07:30N 45°12' E 012°16'0 0.0
2017-Feb-09 06:30N 45°12' E 012°16'0 0.0
2017-Feb-09 05:33N 45°12' E 012°16'0 0.0
2017-Feb-09 04:30N 45°12' E 012°16'0 0.0
2017-Feb-09 03:33N 45°12' E 012°16'0 0.0
2017-Feb-09 02:33N 45°12' E 012°16'0 0.0
2017-Feb-09 01:30N 45°12' E 012°16'0 0.0
2017-Feb-09 00:30N 45°12' E 012°16'0 0.0
2017-Feb-08 23:33N 45°12' E 012°16'0 0.0
2017-Feb-08 22:30N 45°12' E 012°16'0 0.0
2017-Feb-08 21:33N 45°12' E 012°16'0 0.0
2017-Feb-08 20:33N 45°12' E 012°16'0 0.0
2017-Feb-08 19:33N 45°12' E 012°16'  
Track history (hours):
 
Tides and Currents Weather Stations Pressure Air Temp Water Temp Dewpoint Dewpoint Depression Visibility Wind Speed Wind Dir Waves Ship Positions

Altair

Last reported at 2017-Feb-18 19:14 UTC. Time now 2017-Feb-21 14:50 UTC.
Position N 44°17' E 013°02'.

Length 108 m; draft 3 m.

Type: Cargo ship. MMSI: 667021000.

Date/timePositionNaut miles runAvg speedWind from/ knotsBaromVisibWave heightAir tempDewpointWater temp
2017-Feb-18 19:14N 44°17' E 013°02'25 6.0
2017-Feb-18 15:07N 44°30' E 012°31'1 0.8
2017-Feb-18 14:04N 44°30' E 012°30'0 0.0
2017-Feb-18 13:28N 44°30' E 012°30'0 0.0
2017-Feb-18 09:04N 44°30' E 012°30'0 0.0
2017-Feb-17 23:28N 44°30' E 012°30'0 0.0
2017-Feb-17 06:28N 44°30' E 012°30'0 0.0
2017-Feb-17 05:25N 44°30' E 012°30'0 0.0
2017-Feb-17 03:31N 44°30' E 012°30'0 0.0
2017-Feb-17 02:28N 44°30' E 012°30'0 0.0
2017-Feb-17 00:31N 44°30' E 012°30'11 5.1
2017-Feb-16 22:21N 44°38' E 012°40'7 8.8
2017-Feb-16 21:32N 44°45' E 012°43'8 8.6
2017-Feb-16 20:33N 44°53' E 012°47'8 7.8
2017-Feb-16 19:33N 45°01' E 012°45'8 8.2
2017-Feb-16 18:33N 45°08' E 012°38'8 8.4
2017-Feb-16 17:33N 45°12' E 012°28'8 7.7
2017-Feb-16 16:33N 45°14' E 012°17'2 1.5
2017-Feb-16 15:32N 45°12' E 012°16'0 0.0
2017-Feb-16 14:32N 45°12' E 012°16'0 0.0
2017-Feb-16 13:32N 45°12' E 012°16'0 0.0
2017-Feb-16 12:32N 45°12' E 012°16'0 0.0
2017-Feb-16 11:32N 45°12' E 012°16'0 0.0
2017-Feb-16 10:29N 45°12' E 012°16'0 0.0
2017-Feb-16 09:32N 45°12' E 012°16'0 0.0
2017-Feb-16 08:29N 45°12' E 012°16'0 0.0
2017-Feb-16 07:32N 45°12' E 012°16'0 0.0
2017-Feb-16 06:32N 45°12' E 012°16'0 0.0
2017-Feb-16 05:32N 45°12' E 012°16'0 0.0
2017-Feb-16 04:32N 45°12' E 012°16'0 0.0
2017-Feb-16 03:32N 45°12' E 012°16'0 0.0
2017-Feb-16 02:32N 45°12' E 012°16'0 0.0
2017-Feb-16 01:32N 45°12' E 012°16'0 0.0
2017-Feb-16 00:32N 45°12' E 012°16'0 0.0
2017-Feb-15 23:32N 45°12' E 012°16'0 0.0
2017-Feb-15 22:32N 45°12' E 012°16'0 0.0
2017-Feb-15 21:32N 45°12' E 012°16'0 0.0
2017-Feb-15 20:32N 45°12' E 012°16'0 0.0
2017-Feb-15 19:32N 45°12' E 012°16'0 0.0
2017-Feb-15 18:29N 45°12' E 012°16'0 0.0
2017-Feb-15 17:29N 45°12' E 012°16'0 0.0
2017-Feb-15 16:29N 45°12' E 012°16'0 0.0
2017-Feb-15 15:32N 45°12' E 012°16'0 0.0
2017-Feb-15 14:32N 45°12' E 012°16'0 0.0
2017-Feb-15 13:32N 45°12' E 012°16'0 0.0
2017-Feb-15 12:32N 45°12' E 012°16'0 0.0
2017-Feb-15 11:32N 45°12' E 012°16'0 0.0
2017-Feb-15 10:32N 45°12' E 012°16'0 0.0
2017-Feb-15 09:32N 45°12' E 012°16'0 0.0
2017-Feb-15 08:32N 45°12' E 012°16'0 0.0
2017-Feb-15 07:32N 45°12' E 012°16'0 0.0
2017-Feb-15 06:32N 45°12' E 012°16'0 0.0
2017-Feb-15 05:32N 45°12' E 012°16'0 0.0
2017-Feb-15 04:32N 45°12' E 012°16'0 0.0
2017-Feb-15 03:32N 45°12' E 012°16'0 0.0
2017-Feb-15 02:32N 45°12' E 012°16'0 0.0
2017-Feb-15 01:33N 45°12' E 012°16'0 0.0
2017-Feb-15 00:33N 45°12' E 012°16'0 0.0
2017-Feb-14 23:33N 45°12' E 012°16'0 0.0
2017-Feb-14 22:33N 45°12' E 012°16'0 0.0
2017-Feb-14 21:33N 45°12' E 012°16'0 0.0
2017-Feb-14 20:30N 45°12' E 012°16'0 0.0
2017-Feb-14 19:33N 45°12' E 012°16'0 0.0
2017-Feb-14 18:33N 45°12' E 012°16'0 0.0
2017-Feb-14 17:33N 45°12' E 012°16'0 0.0
2017-Feb-14 16:33N 45°12' E 012°16'0 0.0
2017-Feb-14 15:33N 45°12' E 012°16'0 0.0
2017-Feb-14 14:33N 45°12' E 012°16'0 0.0
2017-Feb-14 13:33N 45°12' E 012°16'0 0.0
2017-Feb-14 12:33N 45°12' E 012°16'0 0.0
2017-Feb-14 11:27N 45°12' E 012°16'0 0.0
2017-Feb-14 10:33N 45°12' E 012°16'0 0.0
2017-Feb-14 09:33N 45°12' E 012°16'0 0.0
2017-Feb-14 08:33N 45°12' E 012°16'0 0.0
2017-Feb-14 07:33N 45°12' E 012°16'0 0.0
2017-Feb-14 06:33N 45°12' E 012°16'0 0.0
2017-Feb-14 05:21N 45°12' E 012°16'0 0.0
2017-Feb-14 04:33N 45°12' E 012°16'0 0.0
2017-Feb-14 03:33N 45°12' E 012°16'0 0.0
2017-Feb-14 02:33N 45°12' E 012°16'0 0.0
2017-Feb-14 01:33N 45°12' E 012°16'0 0.0
2017-Feb-14 00:33N 45°12' E 012°16'0 0.0
2017-Feb-13 23:33N 45°12' E 012°16'0 0.0
2017-Feb-13 22:33N 45°12' E 012°16'0 0.0
2017-Feb-13 21:33N 45°12' E 012°16'0 0.0
2017-Feb-13 20:33N 45°12' E 012°16'0 0.0
2017-Feb-13 19:33N 45°12' E 012°16'0 0.0
2017-Feb-13 18:33N 45°12' E 012°16'0 0.0
2017-Feb-13 17:33N 45°12' E 012°16'0 0.0
2017-Feb-13 16:33N 45°12' E 012°16'0 0.0
2017-Feb-13 15:30N 45°12' E 012°16'0 0.0
2017-Feb-13 14:33N 45°12' E 012°16'0 0.0
2017-Feb-13 13:33N 45°12' E 012°16'0 0.0
2017-Feb-13 12:33N 45°12' E 012°16'0 0.0
2017-Feb-13 11:33N 45°12' E 012°16'0 0.0
2017-Feb-13 10:33N 45°12' E 012°16'0 0.0
2017-Feb-13 09:33N 45°12' E 012°16'0 0.0
2017-Feb-13 08:33N 45°12' E 012°16'0 0.0
2017-Feb-13 07:30N 45°12' E 012°16'0 0.0
2017-Feb-13 06:30N 45°12' E 012°16'0 0.0
2017-Feb-13 05:30N 45°12' E 012°16'0 0.0
2017-Feb-13 04:33N 45°12' E 012°16'0 0.0
2017-Feb-13 03:33N 45°12' E 012°16'0 0.0
2017-Feb-13 02:33N 45°12' E 012°16'0 0.0
2017-Feb-13 01:33N 45°12' E 012°16'0 0.0
2017-Feb-13 00:33N 45°12' E 012°16'0 0.0
2017-Feb-12 23:30N 45°12' E 012°16'0 0.0
2017-Feb-12 22:33N 45°12' E 012°16'0 0.0
2017-Feb-12 21:33N 45°12' E 012°16'0 0.0
2017-Feb-12 20:33N 45°12' E 012°16'0 0.0
2017-Feb-12 19:33N 45°12' E 012°16'0 0.0
2017-Feb-12 18:33N 45°12' E 012°16'0 0.0
2017-Feb-12 17:33N 45°12' E 012°16'0 0.0
2017-Feb-12 16:33N 45°12' E 012°16'0 0.0
2017-Feb-12 15:33N 45°12' E 012°16'0 0.0
2017-Feb-12 14:33N 45°12' E 012°16'0 0.0
2017-Feb-12 13:33N 45°12' E 012°16'0 0.0
2017-Feb-12 12:33N 45°12' E 012°16'0 0.0
2017-Feb-12 11:33N 45°12' E 012°16'0 0.0
2017-Feb-12 10:30N 45°12' E 012°16'0 0.0
2017-Feb-12 09:33N 45°12' E 012°16'0 0.0
2017-Feb-12 08:33N 45°12' E 012°16'0 0.0
2017-Feb-12 07:33N 45°12' E 012°16'0 0.0
2017-Feb-12 06:33N 45°12' E 012°16'0 0.0
2017-Feb-12 05:33N 45°12' E 012°16'0 0.0
2017-Feb-12 04:33N 45°12' E 012°16'0 0.0
2017-Feb-12 03:33N 45°12' E 012°16'0 0.0
2017-Feb-12 02:33N 45°12' E 012°16'0 0.0
2017-Feb-12 01:33N 45°12' E 012°16'0 0.0
2017-Feb-12 00:33N 45°12' E 012°16'0 0.0
2017-Feb-11 23:33N 45°12' E 012°16'0 0.0
2017-Feb-11 22:33N 45°12' E 012°16'0 0.0
2017-Feb-11 21:33N 45°12' E 012°16'0 0.0
2017-Feb-11 20:33N 45°12' E 012°16'0 0.0
2017-Feb-11 19:33N 45°12' E 012°16'0 0.0
2017-Feb-11 18:33N 45°12' E 012°16'0 0.0
2017-Feb-11 17:33N 45°12' E 012°16'0 0.0
2017-Feb-11 16:33N 45°12' E 012°16'0 0.0
2017-Feb-11 15:33N 45°12' E 012°16'0 0.0
2017-Feb-11 14:33N 45°12' E 012°16'0 0.0
2017-Feb-11 13:33N 45°12' E 012°16'0 0.0
2017-Feb-11 12:33N 45°12' E 012°16'0 0.0
2017-Feb-11 11:33N 45°12' E 012°16'0 0.0
2017-Feb-11 10:30N 45°12' E 012°16'0 0.0
2017-Feb-11 09:33N 45°12' E 012°16'0 0.0
2017-Feb-11 08:33N 45°12' E 012°16'0 0.0
2017-Feb-11 07:33N 45°12' E 012°16'0 0.0
2017-Feb-11 06:33N 45°12' E 012°16'0 0.0
2017-Feb-11 05:33N 45°12' E 012°16'0 0.0
2017-Feb-11 04:33N 45°12' E 012°16'0 0.0
2017-Feb-11 03:33N 45°12' E 012°16'0 0.0
2017-Feb-11 02:33N 45°12' E 012°16'0 0.0
2017-Feb-11 01:33N 45°12' E 012°16'0 0.0
2017-Feb-11 00:33N 45°12' E 012°16'0 0.0
2017-Feb-10 23:30N 45°12' E 012°16'0 0.0
2017-Feb-10 22:33N 45°12' E 012°16'0 0.0
2017-Feb-10 21:33N 45°12' E 012°16'0 0.0
2017-Feb-10 20:33N 45°12' E 012°16'0 0.0
2017-Feb-10 19:33N 45°12' E 012°16'0 0.0
2017-Feb-10 18:33N 45°12' E 012°16'0 0.0
2017-Feb-10 17:33N 45°12' E 012°16'0 0.0
2017-Feb-10 16:33N 45°12' E 012°16'0 0.0
2017-Feb-10 15:30N 45°12' E 012°16'0 0.0
2017-Feb-10 14:33N 45°12' E 012°16'0 0.0
2017-Feb-10 13:33N 45°12' E 012°16'0 0.0
2017-Feb-10 12:30N 45°12' E 012°16'0 0.0
2017-Feb-10 11:33N 45°12' E 012°16'0 0.0
2017-Feb-10 10:33N 45°12' E 012°16'0 0.0
2017-Feb-10 09:33N 45°12' E 012°16'0 0.0
2017-Feb-10 07:30N 45°12' E 012°16'0 0.0
2017-Feb-10 06:30N 45°12' E 012°16'0 0.0
2017-Feb-10 05:30N 45°12' E 012°16'0 0.0
2017-Feb-10 04:30N 45°12' E 012°16'0 0.0
2017-Feb-10 03:30N 45°12' E 012°16'0 0.0
2017-Feb-10 02:30N 45°12' E 012°16'0 0.0
2017-Feb-10 01:30N 45°12' E 012°16'0 0.0
2017-Feb-10 00:24N 45°12' E 012°16'0 0.0
2017-Feb-09 23:33N 45°12' E 012°16'0 0.0
2017-Feb-09 22:30N 45°12' E 012°16'0 0.0
2017-Feb-09 21:33N 45°12' E 012°16'0 0.0
2017-Feb-09 20:33N 45°12' E 012°16'0 0.0
2017-Feb-09 19:30N 45°12' E 012°16'0 0.0
2017-Feb-09 18:33N 45°12' E 012°16'0 0.0
2017-Feb-09 17:30N 45°12' E 012°16'0 0.0
2017-Feb-09 16:12N 45°12' E 012°16'0 0.0
2017-Feb-09 14:24N 45°12' E 012°16'0 0.0
2017-Feb-09 13:30N 45°12' E 012°16'0 0.0
2017-Feb-09 09:33N 45°12' E 012°16'0 0.0
2017-Feb-09 08:21N 45°12' E 012°16'0 0.0
2017-Feb-09 07:30N 45°12' E 012°16'0 0.0
2017-Feb-09 06:30N 45°12' E 012°16'0 0.0
2017-Feb-09 05:33N 45°12' E 012°16'0 0.0
2017-Feb-09 04:30N 45°12' E 012°16'0 0.0
2017-Feb-09 03:33N 45°12' E 012°16'0 0.0
2017-Feb-09 02:33N 45°12' E 012°16'0 0.0
2017-Feb-09 01:30N 45°12' E 012°16'0 0.0
2017-Feb-09 00:30N 45°12' E 012°16'0 0.0
2017-Feb-08 23:33N 45°12' E 012°16'0 0.0
2017-Feb-08 22:30N 45°12' E 012°16'0 0.0
2017-Feb-08 21:33N 45°12' E 012°16'0 0.0
2017-Feb-08 20:33N 45°12' E 012°16'0 0.0
2017-Feb-08 19:33N 45°12' E 012°16'  

Dump ship's entire track history